Emily, MN (56447)

8:28 PM CST on March 05, 2015 (GMT -0600)
Lake Ossi | Change Station
CLOSE
Current Station
Personal Weather Station
Location: Pequot Lakes, MN
Elevation: 1224 ft
Nearby Weather Stations

Elev 1224 ft 46.65 °N, 94.21 °W | Updated 23 seconds ago

Clear
Clear
8.8 °F
Feels Like -4 °F
N
8.3
Wind Variable Wind from South
Gusts 11.4 mph

Today
High -- | Low -- °F
--% Chance of Precip.
Yesterday
High -- | Low -- °F
Precip. -- in
6:48 AM 6:06 PM
Full, 100% visible
Pressure 30.23 in
Visibility 10.0 miles
Clouds Clear
Windchill -4 °F
Dew Point -10 °F
Humidity 42%
Rainfall in
Snow Depth Not available.
UV 0 out of 12
Pollen .10 out of 12
Air Quality Not available.
Flu Activity Not available.
METAR KAIT 060213Z AUTO 17009KT 10SM CLR M12/M18 A3023 RMK AO2

More Conditions Fewer Conditions

Pressure 30.23 in
Visibility 10.0 miles
Clouds Clear
Windchill -4 °F
Dew Point -10 °F
Humidity 42%
Rainfall in
Snow Depth Not available.
UV 0 out of 12
Pollen .10 out of 12
Air Quality Not available.
Flu Activity Not available.
METAR KAIT 060213Z AUTO 17009KT 10SM CLR M12/M18 A3023 RMK AO2

More Conditions Fewer Conditions

10-Day Weather Forecast

Almanac

Astronomy

Mar. 05, 2015 Rise Set
Actual Time
Civil Twilight
Nautical Twilight
Astronomical Twilight
Moon
Length of Visible Light
Length of Day
Tomorrow will be .
, % of the Moon is Illuminated

Today's Extremes

State Highs State Lows

Community

WunderPhotos

Upload Photos

1,803,113 photos uploaded!

WunderBlogs® & News

Nearby

Air Quality

  Air Quality AQ Index Pollutant
Not available.

Snow Depth

Station Depth Elevation

Earthquake Activity

City Distance Mag. Time & Date
Minimum magnitude displayed is 2.5.

Coastal Water Temperatures

Place Temperature

Nearby Weather Stations